sensor_id;sensor_type;location;lat;lon;timestamp;pressure;altitude;pressure_sealevel;temperature;humidity
77381;BME280;66439;50.106;10.996;2023-07-31T00:01:38;98568.52;;;17.45;58.06
77381;BME280;66439;50.106;10.996;2023-07-31T00:03:56;98566.62;;;17.45;58.00
77381;BME280;66439;50.106;10.996;2023-07-31T00:05:59;98564.27;;;17.45;57.95
77381;BME280;66439;50.106;10.996;2023-07-31T00:08:02;98565.25;;;17.45;57.95
77381;BME280;66439;50.106;10.996;2023-07-31T00:10:06;98566.82;;;17.46;58.00
77381;BME280;66439;50.106;10.996;2023-07-31T00:12:08;98566.66;;;17.46;57.96
77381;BME280;66439;50.106;10.996;2023-07-31T00:14:11;98567.55;;;17.47;58.03
77381;BME280;66439;50.106;10.996;2023-07-31T00:16:15;98564.29;;;17.46;58.03
77381;BME280;66439;50.106;10.996;2023-07-31T00:18:25;98561.82;;;17.46;58.04
77381;BME280;66439;50.106;10.996;2023-07-31T00:20:28;98565.41;;;17.45;58.30
77381;BME280;66439;50.106;10.996;2023-07-31T00:22:31;98564.34;;;17.45;58.25
77381;BME280;66439;50.106;10.996;2023-07-31T00:24:36;98569.16;;;17.47;58.05
77381;BME280;66439;50.106;10.996;2023-07-31T00:26:38;98564.40;;;17.47;58.25
77381;BME280;66439;50.106;10.996;2023-07-31T00:28:42;98564.69;;;17.49;58.29
77381;BME280;66439;50.106;10.996;2023-07-31T00:30:46;98559.80;;;17.49;58.19
77381;BME280;66439;50.106;10.996;2023-07-31T00:32:49;98558.24;;;17.49;58.25
77381;BME280;66439;50.106;10.996;2023-07-31T00:34:53;98551.35;;;17.48;58.39
77381;BME280;66439;50.106;10.996;2023-07-31T00:36:56;98551.08;;;17.50;58.62
77381;BME280;66439;50.106;10.996;2023-07-31T00:39:02;98549.98;;;17.53;58.78
77381;BME280;66439;50.106;10.996;2023-07-31T00:41:05;98548.98;;;17.55;58.69
77381;BME280;66439;50.106;10.996;2023-07-31T00:43:09;98549.11;;;17.57;58.55
77381;BME280;66439;50.106;10.996;2023-07-31T00:45:15;98548.23;;;17.55;58.62
77381;BME280;66439;50.106;10.996;2023-07-31T00:47:26;98546.60;;;17.54;58.63
77381;BME280;66439;50.106;10.996;2023-07-31T00:49:30;98548.76;;;17.53;58.51
77381;BME280;66439;50.106;10.996;2023-07-31T00:51:33;98541.16;;;17.52;58.60
77381;BME280;66439;50.106;10.996;2023-07-31T00:53:36;98542.41;;;17.52;58.60
77381;BME280;66439;50.106;10.996;2023-07-31T00:55:42;98537.14;;;17.53;58.50
77381;BME280;66439;50.106;10.996;2023-07-31T00:57:45;98541.34;;;17.55;58.58
77381;BME280;66439;50.106;10.996;2023-07-31T00:59:48;98538.23;;;17.55;58.37
77381;BME280;66439;50.106;10.996;2023-07-31T01:01:52;98537.11;;;17.55;58.28
77381;BME280;66439;50.106;10.996;2023-07-31T01:03:57;98530.09;;;17.57;58.56
77381;BME280;66439;50.106;10.996;2023-07-31T01:06:14;98527.25;;;17.59;58.39
77381;BME280;66439;50.106;10.996;2023-07-31T01:08:37;98522.98;;;17.62;58.51
77381;BME280;66439;50.106;10.996;2023-07-31T01:10:49;98525.55;;;17.64;58.81
77381;BME280;66439;50.106;10.996;2023-07-31T01:12:57;98524.70;;;17.67;58.82
77381;BME280;66439;50.106;10.996;2023-07-31T01:15:06;98522.84;;;17.70;58.71
77381;BME280;66439;50.106;10.996;2023-07-31T01:17:26;98518.80;;;17.74;58.72
77381;BME280;66439;50.106;10.996;2023-07-31T01:19:30;98514.96;;;17.80;58.65
77381;BME280;66439;50.106;10.996;2023-07-31T01:21:45;98515.23;;;17.84;58.74
77381;BME280;66439;50.106;10.996;2023-07-31T01:26:18;98513.35;;;17.89;58.62
77381;BME280;66439;50.106;10.996;2023-07-31T01:29:02;98514.98;;;17.91;58.46
77381;BME280;66439;50.106;10.996;2023-07-31T01:31:09;98510.59;;;17.93;58.41
77381;BME280;66439;50.106;10.996;2023-07-31T01:33:15;98510.30;;;17.92;58.41
77381;BME280;66439;50.106;10.996;2023-07-31T01:35:19;98509.13;;;17.93;58.19
77381;BME280;66439;50.106;10.996;2023-07-31T01:37:31;98510.84;;;17.92;58.66
77381;BME280;66439;50.106;10.996;2023-07-31T01:39:53;98504.95;;;17.93;58.81
77381;BME280;66439;50.106;10.996;2023-07-31T01:41:57;98502.14;;;17.93;58.98
77381;BME280;66439;50.106;10.996;2023-07-31T01:44:06;98501.77;;;17.93;59.05
77381;BME280;66439;50.106;10.996;2023-07-31T01:46:09;98500.27;;;17.89;58.99
77381;BME280;66439;50.106;10.996;2023-07-31T01:48:13;98499.23;;;17.85;59.17
77381;BME280;66439;50.106;10.996;2023-07-31T01:50:16;98497.31;;;17.84;59.36
77381;BME280;66439;50.106;10.996;2023-07-31T01:52:19;98495.48;;;17.82;59.26
77381;BME280;66439;50.106;10.996;2023-07-31T01:54:22;98495.43;;;17.80;59.24
77381;BME280;66439;50.106;10.996;2023-07-31T01:56:29;98495.98;;;17.77;59.08
77381;BME280;66439;50.106;10.996;2023-07-31T01:58:31;98489.12;;;17.74;59.06
77381;BME280;66439;50.106;10.996;2023-07-31T02:00:34;98487.55;;;17.72;59.65
77381;BME280;66439;50.106;10.996;2023-07-31T02:02:37;98486.34;;;17.73;59.38
77381;BME280;66439;50.106;10.996;2023-07-31T02:04:40;98485.36;;;17.72;59.56
77381;BME280;66439;50.106;10.996;2023-07-31T02:06:43;98479.27;;;17.72;59.58
77381;BME280;66439;50.106;10.996;2023-07-31T02:08:46;98476.25;;;17.74;59.50
77381;BME280;66439;50.106;10.996;2023-07-31T02:10:49;98474.21;;;17.74;59.49
77381;BME280;66439;50.106;10.996;2023-07-31T02:12:52;98469.48;;;17.76;59.58
77381;BME280;66439;50.106;10.996;2023-07-31T02:14:54;98464.45;;;17.78;59.66
77381;BME280;66439;50.106;10.996;2023-07-31T02:16:57;98464.19;;;17.79;59.55
77381;BME280;66439;50.106;10.996;2023-07-31T02:19:00;98458.94;;;17.77;59.49
77381;BME280;66439;50.106;10.996;2023-07-31T02:21:03;98455.84;;;17.78;59.67
77381;BME280;66439;50.106;10.996;2023-07-31T02:23:06;98459.09;;;17.79;59.48
77381;BME280;66439;50.106;10.996;2023-07-31T02:25:13;98456.21;;;17.81;59.75
77381;BME280;66439;50.106;10.996;2023-07-31T02:27:15;98455.39;;;17.83;59.63
77381;BME280;66439;50.106;10.996;2023-07-31T02:29:21;98453.08;;;17.82;59.56
77381;BME280;66439;50.106;10.996;2023-07-31T02:31:23;98452.80;;;17.84;59.54
77381;BME280;66439;50.106;10.996;2023-07-31T02:33:27;98447.18;;;17.86;59.38
77381;BME280;66439;50.106;10.996;2023-07-31T02:35:30;98445.45;;;17.87;59.17
77381;BME280;66439;50.106;10.996;2023-07-31T02:37:34;98440.44;;;17.90;59.38
77381;BME280;66439;50.106;10.996;2023-07-31T02:39:40;98440.55;;;17.92;59.54
77381;BME280;66439;50.106;10.996;2023-07-31T02:42:01;98439.55;;;17.93;59.09
77381;BME280;66439;50.106;10.996;2023-07-31T02:44:04;98438.06;;;17.92;59.30
77381;BME280;66439;50.106;10.996;2023-07-31T02:46:07;98435.83;;;17.93;58.98
77381;BME280;66439;50.106;10.996;2023-07-31T02:48:10;98434.11;;;17.91;59.18
77381;BME280;66439;50.106;10.996;2023-07-31T02:50:14;98436.08;;;17.90;59.09
77381;BME280;66439;50.106;10.996;2023-07-31T02:52:17;98435.11;;;17.87;58.79
77381;BME280;66439;50.106;10.996;2023-07-31T02:54:21;98433.64;;;17.86;59.04
77381;BME280;66439;50.106;10.996;2023-07-31T02:56:25;98433.94;;;17.88;59.09
77381;BME280;66439;50.106;10.996;2023-07-31T02:58:30;98431.13;;;17.87;59.27
77381;BME280;66439;50.106;10.996;2023-07-31T03:00:33;98433.84;;;17.88;59.09
77381;BME280;66439;50.106;10.996;2023-07-31T03:02:39;98433.20;;;17.88;59.12
77381;BME280;66439;50.106;10.996;2023-07-31T03:04:44;98433.27;;;17.84;59.32
77381;BME280;66439;50.106;10.996;2023-07-31T03:06:46;98434.64;;;17.83;59.23
77381;BME280;66439;50.106;10.996;2023-07-31T03:08:50;98436.70;;;17.81;58.93
77381;BME280;66439;50.106;10.996;2023-07-31T03:11:05;98440.85;;;17.79;59.04
77381;BME280;66439;50.106;10.996;2023-07-31T03:13:09;98436.02;;;17.80;59.25
77381;BME280;66439;50.106;10.996;2023-07-31T03:15:14;98439.35;;;17.82;59.22
77381;BME280;66439;50.106;10.996;2023-07-31T03:17:19;98435.02;;;17.83;59.19
77381;BME280;66439;50.106;10.996;2023-07-31T03:19:21;98432.39;;;17.85;59.52
77381;BME280;66439;50.106;10.996;2023-07-31T03:21:28;98438.48;;;17.86;59.20
77381;BME280;66439;50.106;10.996;2023-07-31T03:23:30;98437.23;;;17.84;59.00
77381;BME280;66439;50.106;10.996;2023-07-31T03:25:33;98435.50;;;17.83;59.13
77381;BME280;66439;50.106;10.996;2023-07-31T03:27:37;98435.17;;;17.83;59.15
77381;BME280;66439;50.106;10.996;2023-07-31T03:29:41;98437.16;;;17.83;58.89
77381;BME280;66439;50.106;10.996;2023-07-31T03:31:43;98436.45;;;17.82;59.16
77381;BME280;66439;50.106;10.996;2023-07-31T03:33:47;98443.04;;;17.81;58.94
77381;BME280;66439;50.106;10.996;2023-07-31T03:35:50;98443.16;;;17.79;59.00
77381;BME280;66439;50.106;10.996;2023-07-31T03:37:54;98443.17;;;17.77;59.00
77381;BME280;66439;50.106;10.996;2023-07-31T03:39:57;98442.29;;;17.74;59.13
77381;BME280;66439;50.106;10.996;2023-07-31T03:42:01;98434.28;;;17.72;59.14
77381;BME280;66439;50.106;10.996;2023-07-31T03:44:04;98435.17;;;17.74;59.27
77381;BME280;66439;50.106;10.996;2023-07-31T03:46:07;98437.63;;;17.73;59.33
77381;BME280;66439;50.106;10.996;2023-07-31T03:48:10;98437.77;;;17.72;59.21
77381;BME280;66439;50.106;10.996;2023-07-31T03:50:13;98441.73;;;17.72;59.34
77381;BME280;66439;50.106;10.996;2023-07-31T03:52:16;98441.85;;;17.72;59.52
77381;BME280;66439;50.106;10.996;2023-07-31T03:54:21;98446.42;;;17.74;59.53
77381;BME280;66439;50.106;10.996;2023-07-31T03:56:24;98444.67;;;17.75;59.28
77381;BME280;66439;50.106;10.996;2023-07-31T03:58:28;98441.02;;;17.75;59.38
77381;BME280;66439;50.106;10.996;2023-07-31T04:00:31;98439.16;;;17.76;59.43
77381;BME280;66439;50.106;10.996;2023-07-31T04:02:34;98440.02;;;17.76;59.34
77381;BME280;66439;50.106;10.996;2023-07-31T04:04:39;98439.42;;;17.75;59.30
77381;BME280;66439;50.106;10.996;2023-07-31T04:06:44;98437.11;;;17.75;59.18
77381;BME280;66439;50.106;10.996;2023-07-31T04:08:48;98433.46;;;17.76;59.26
77381;BME280;66439;50.106;10.996;2023-07-31T04:10:51;98432.67;;;17.76;59.50
77381;BME280;66439;50.106;10.996;2023-07-31T04:12:54;98429.21;;;17.78;59.51
77381;BME280;66439;50.106;10.996;2023-07-31T04:14:57;98425.77;;;17.80;59.59
77381;BME280;66439;50.106;10.996;2023-07-31T04:17:01;98428.08;;;17.83;59.73
77381;BME280;66439;50.106;10.996;2023-07-31T04:19:04;98428.27;;;17.87;59.39
77381;BME280;66439;50.106;10.996;2023-07-31T04:21:08;98425.40;;;17.91;59.56
77381;BME280;66439;50.106;10.996;2023-07-31T04:23:21;98430.92;;;17.95;59.52
77381;BME280;66439;50.106;10.996;2023-07-31T04:25:26;98425.16;;;17.98;59.42
77381;BME280;66439;50.106;10.996;2023-07-31T04:27:44;98423.08;;;18.01;59.40
77381;BME280;66439;50.106;10.996;2023-07-31T04:29:48;98423.98;;;18.06;59.63
77381;BME280;66439;50.106;10.996;2023-07-31T04:31:51;98426.63;;;18.09;59.38
77381;BME280;66439;50.106;10.996;2023-07-31T04:33:54;98426.21;;;18.10;59.26
77381;BME280;66439;50.106;10.996;2023-07-31T04:35:58;98416.21;;;18.13;59.54
77381;BME280;66439;50.106;10.996;2023-07-31T04:38:01;98420.36;;;18.15;59.28
77381;BME280;66439;50.106;10.996;2023-07-31T04:40:08;98431.94;;;18.16;59.11
77381;BME280;66439;50.106;10.996;2023-07-31T04:42:13;98437.90;;;18.15;58.92
77381;BME280;66439;50.106;10.996;2023-07-31T04:44:15;98442.43;;;18.14;58.97
77381;BME280;66439;50.106;10.996;2023-07-31T04:46:20;98442.20;;;18.12;58.89
77381;BME280;66439;50.106;10.996;2023-07-31T04:48:24;98439.25;;;18.10;59.04
77381;BME280;66439;50.106;10.996;2023-07-31T04:50:28;98432.71;;;18.10;59.28
77381;BME280;66439;50.106;10.996;2023-07-31T04:52:32;98428.23;;;18.11;59.27
77381;BME280;66439;50.106;10.996;2023-07-31T04:54:38;98426.15;;;18.11;59.48
77381;BME280;66439;50.106;10.996;2023-07-31T04:56:44;98427.71;;;18.12;59.37
77381;BME280;66439;50.106;10.996;2023-07-31T04:58:47;98425.35;;;18.10;59.15
77381;BME280;66439;50.106;10.996;2023-07-31T05:00:50;98424.85;;;18.08;59.16
77381;BME280;66439;50.106;10.996;2023-07-31T05:02:53;98422.27;;;18.06;59.29
77381;BME280;66439;50.106;10.996;2023-07-31T05:04:57;98424.25;;;18.06;59.19
77381;BME280;66439;50.106;10.996;2023-07-31T05:07:00;98422.90;;;18.06;59.17
77381;BME280;66439;50.106;10.996;2023-07-31T05:09:03;98420.52;;;18.04;59.19
77381;BME280;66439;50.106;10.996;2023-07-31T05:11:10;98419.36;;;18.03;59.08
77381;BME280;66439;50.106;10.996;2023-07-31T05:13:23;98420.73;;;18.02;59.08
77381;BME280;66439;50.106;10.996;2023-07-31T05:15:29;98421.42;;;18.04;58.99
77381;BME280;66439;50.106;10.996;2023-07-31T05:17:34;98422.23;;;18.01;59.00
77381;BME280;66439;50.106;10.996;2023-07-31T05:19:45;98417.96;;;18.01;58.99
77381;BME280;66439;50.106;10.996;2023-07-31T05:21:47;98415.42;;;18.00;58.97
77381;BME280;66439;50.106;10.996;2023-07-31T05:23:50;98414.85;;;17.98;59.13
77381;BME280;66439;50.106;10.996;2023-07-31T05:25:53;98413.70;;;17.98;58.94
77381;BME280;66439;50.106;10.996;2023-07-31T05:27:58;98413.34;;;17.98;59.10
77381;BME280;66439;50.106;10.996;2023-07-31T05:30:01;98405.42;;;17.98;59.05
77381;BME280;66439;50.106;10.996;2023-07-31T05:32:04;98406.41;;;17.98;59.19
77381;BME280;66439;50.106;10.996;2023-07-31T05:34:09;98409.21;;;17.99;59.18
77381;BME280;66439;50.106;10.996;2023-07-31T05:36:15;98414.14;;;17.98;59.24
77381;BME280;66439;50.106;10.996;2023-07-31T05:38:17;98415.06;;;17.98;59.09
77381;BME280;66439;50.106;10.996;2023-07-31T05:40:23;98418.20;;;17.99;59.39
77381;BME280;66439;50.106;10.996;2023-07-31T05:42:27;98415.25;;;18.00;59.21
77381;BME280;66439;50.106;10.996;2023-07-31T05:44:53;98417.48;;;18.00;59.23
77381;BME280;66439;50.106;10.996;2023-07-31T05:46:56;98417.65;;;18.02;59.32
77381;BME280;66439;50.106;10.996;2023-07-31T05:49:02;98419.38;;;18.04;59.25
77381;BME280;66439;50.106;10.996;2023-07-31T05:51:05;98418.05;;;18.08;59.28
77381;BME280;66439;50.106;10.996;2023-07-31T05:53:08;98424.27;;;18.09;59.26
77381;BME280;66439;50.106;10.996;2023-07-31T05:55:13;98424.88;;;18.10;59.23
77381;BME280;66439;50.106;10.996;2023-07-31T05:57:19;98424.77;;;18.13;59.22
77381;BME280;66439;50.106;10.996;2023-07-31T05:59:23;98425.89;;;18.15;59.31
77381;BME280;66439;50.106;10.996;2023-07-31T06:01:26;98419.48;;;18.17;59.12
77381;BME280;66439;50.106;10.996;2023-07-31T06:03:30;98421.92;;;18.21;59.13
77381;BME280;66439;50.106;10.996;2023-07-31T06:05:44;98419.60;;;18.23;58.98
77381;BME280;66439;50.106;10.996;2023-07-31T06:07:49;98420.13;;;18.26;58.92
77381;BME280;66439;50.106;10.996;2023-07-31T06:09:53;98419.81;;;18.29;59.07
77381;BME280;66439;50.106;10.996;2023-07-31T06:11:59;98418.11;;;18.31;58.93
77381;BME280;66439;50.106;10.996;2023-07-31T06:14:02;98418.06;;;18.33;59.26
77381;BME280;66439;50.106;10.996;2023-07-31T06:16:06;98418.39;;;18.37;59.02
77381;BME280;66439;50.106;10.996;2023-07-31T06:18:09;98417.45;;;18.37;58.92
77381;BME280;66439;50.106;10.996;2023-07-31T06:20:14;98410.82;;;18.37;58.86
77381;BME280;66439;50.106;10.996;2023-07-31T06:22:18;98408.52;;;18.38;58.91
77381;BME280;66439;50.106;10.996;2023-07-31T06:24:21;98404.48;;;18.37;58.91
77381;BME280;66439;50.106;10.996;2023-07-31T06:26:24;98402.40;;;18.39;59.05
77381;BME280;66439;50.106;10.996;2023-07-31T06:28:44;98409.73;;;18.42;59.08
77381;BME280;66439;50.106;10.996;2023-07-31T06:30:46;98410.54;;;18.42;58.97
77381;BME280;66439;50.106;10.996;2023-07-31T06:32:50;98411.02;;;18.42;58.91
77381;BME280;66439;50.106;10.996;2023-07-31T06:34:52;98409.30;;;18.42;58.98
77381;BME280;66439;50.106;10.996;2023-07-31T06:36:56;98411.19;;;18.43;58.98
77381;BME280;66439;50.106;10.996;2023-07-31T06:39:00;98407.84;;;18.42;58.99
77381;BME280;66439;50.106;10.996;2023-07-31T06:41:03;98411.31;;;18.41;58.96
77381;BME280;66439;50.106;10.996;2023-07-31T06:43:06;98415.59;;;18.39;58.87
77381;BME280;66439;50.106;10.996;2023-07-31T06:45:12;98413.41;;;18.38;59.30
77381;BME280;66439;50.106;10.996;2023-07-31T06:47:15;98418.75;;;18.38;59.30
77381;BME280;66439;50.106;10.996;2023-07-31T06:49:19;98420.75;;;18.39;59.00
77381;BME280;66439;50.106;10.996;2023-07-31T06:51:22;98421.04;;;18.37;58.96
77381;BME280;66439;50.106;10.996;2023-07-31T06:53:24;98423.20;;;18.37;59.18
77381;BME280;66439;50.106;10.996;2023-07-31T06:55:27;98424.15;;;18.37;59.07
77381;BME280;66439;50.106;10.996;2023-07-31T06:57:31;98424.55;;;18.38;59.09
77381;BME280;66439;50.106;10.996;2023-07-31T06:59:34;98425.06;;;18.40;59.12
77381;BME280;66439;50.106;10.996;2023-07-31T07:01:39;98425.48;;;18.42;59.25
77381;BME280;66439;50.106;10.996;2023-07-31T07:03:42;98428.89;;;18.45;59.28
77381;BME280;66439;50.106;10.996;2023-07-31T07:05:45;98429.09;;;18.50;59.28
77381;BME280;66439;50.106;10.996;2023-07-31T07:07:49;98430.89;;;18.55;59.49
77381;BME280;66439;50.106;10.996;2023-07-31T07:09:53;98431.60;;;18.58;59.40
77381;BME280;66439;50.106;10.996;2023-07-31T07:11:59;98433.80;;;18.60;59.22
77381;BME280;66439;50.106;10.996;2023-07-31T07:14:03;98435.90;;;18.64;59.18
77381;BME280;66439;50.106;10.996;2023-07-31T07:16:05;98434.10;;;18.68;59.39
77381;BME280;66439;50.106;10.996;2023-07-31T07:18:19;98435.81;;;18.73;59.32
77381;BME280;66439;50.106;10.996;2023-07-31T07:20:24;98435.34;;;18.73;59.08
77381;BME280;66439;50.106;10.996;2023-07-31T07:22:28;98437.44;;;18.72;59.06
77381;BME280;66439;50.106;10.996;2023-07-31T07:24:34;98430.39;;;18.73;59.06
77381;BME280;66439;50.106;10.996;2023-07-31T07:26:37;98432.41;;;18.75;59.23
77381;BME280;66439;50.106;10.996;2023-07-31T07:28:41;98431.38;;;18.78;59.08
77381;BME280;66439;50.106;10.996;2023-07-31T07:30:51;98434.77;;;18.78;59.04
77381;BME280;66439;50.106;10.996;2023-07-31T07:32:54;98432.66;;;18.76;58.87
77381;BME280;66439;50.106;10.996;2023-07-31T07:34:57;98432.98;;;18.78;58.84
77381;BME280;66439;50.106;10.996;2023-07-31T07:37:00;98433.90;;;18.76;58.74
77381;BME280;66439;50.106;10.996;2023-07-31T07:39:03;98429.09;;;18.76;58.62
77381;BME280;66439;50.106;10.996;2023-07-31T07:41:07;98434.43;;;18.76;58.86
77381;BME280;66439;50.106;10.996;2023-07-31T07:43:10;98434.37;;;18.76;58.80
77381;BME280;66439;50.106;10.996;2023-07-31T07:45:13;98432.09;;;18.75;58.72
77381;BME280;66439;50.106;10.996;2023-07-31T07:47:17;98430.64;;;18.76;58.77
77381;BME280;66439;50.106;10.996;2023-07-31T07:49:20;98430.08;;;18.77;58.75
77381;BME280;66439;50.106;10.996;2023-07-31T07:51:27;98424.23;;;18.79;58.77
77381;BME280;66439;50.106;10.996;2023-07-31T07:53:32;98420.34;;;18.81;58.82
77381;BME280;66439;50.106;10.996;2023-07-31T07:55:37;98418.92;;;18.83;58.62
77381;BME280;66439;50.106;10.996;2023-07-31T07:57:39;98414.54;;;18.84;58.48
77381;BME280;66439;50.106;10.996;2023-07-31T07:59:43;98415.24;;;18.85;58.62
77381;BME280;66439;50.106;10.996;2023-07-31T08:01:46;98414.63;;;18.87;58.45
77381;BME280;66439;50.106;10.996;2023-07-31T08:03:51;98413.54;;;18.89;58.32
77381;BME280;66439;50.106;10.996;2023-07-31T08:05:58;98412.35;;;18.89;58.33
77381;BME280;66439;50.106;10.996;2023-07-31T08:08:03;98407.86;;;18.91;58.36
77381;BME280;66439;50.106;10.996;2023-07-31T08:10:13;98406.17;;;18.94;58.36
77381;BME280;66439;50.106;10.996;2023-07-31T08:12:16;98401.28;;;18.98;58.16
77381;BME280;66439;50.106;10.996;2023-07-31T08:14:19;98399.73;;;19.02;58.19
77381;BME280;66439;50.106;10.996;2023-07-31T08:16:23;98399.55;;;19.04;58.10
77381;BME280;66439;50.106;10.996;2023-07-31T08:18:27;98397.98;;;19.07;58.28
77381;BME280;66439;50.106;10.996;2023-07-31T08:20:30;98397.23;;;19.10;58.14
77381;BME280;66439;50.106;10.996;2023-07-31T08:22:33;98399.61;;;19.14;58.00
77381;BME280;66439;50.106;10.996;2023-07-31T08:24:37;98399.30;;;19.15;57.86
77381;BME280;66439;50.106;10.996;2023-07-31T08:26:42;98397.45;;;19.17;57.82
77381;BME280;66439;50.106;10.996;2023-07-31T08:28:45;98397.64;;;19.20;57.89
77381;BME280;66439;50.106;10.996;2023-07-31T08:30:51;98397.04;;;19.23;57.73
77381;BME280;66439;50.106;10.996;2023-07-31T08:32:54;98398.05;;;19.26;57.84
77381;BME280;66439;50.106;10.996;2023-07-31T08:34:59;98398.36;;;19.28;57.87
77381;BME280;66439;50.106;10.996;2023-07-31T08:37:05;98397.65;;;19.31;57.96
77381;BME280;66439;50.106;10.996;2023-07-31T08:39:08;98394.52;;;19.34;57.75
77381;BME280;66439;50.106;10.996;2023-07-31T08:41:11;98388.31;;;19.38;57.89
77381;BME280;66439;50.106;10.996;2023-07-31T08:43:16;98381.84;;;19.44;57.85
77381;BME280;66439;50.106;10.996;2023-07-31T08:45:20;98375.11;;;19.54;58.06
77381;BME280;66439;50.106;10.996;2023-07-31T08:47:24;98379.46;;;19.64;58.15
77381;BME280;66439;50.106;10.996;2023-07-31T08:49:29;98379.02;;;19.70;57.78
77381;BME280;66439;50.106;10.996;2023-07-31T08:51:36;98380.91;;;19.75;57.57
77381;BME280;66439;50.106;10.996;2023-07-31T08:53:39;98380.27;;;19.78;57.20
77381;BME280;66439;50.106;10.996;2023-07-31T08:55:44;98375.32;;;19.80;57.10
77381;BME280;66439;50.106;10.996;2023-07-31T08:57:48;98377.78;;;19.83;57.08
77381;BME280;66439;50.106;10.996;2023-07-31T08:59:55;98378.77;;;19.84;57.06
77381;BME280;66439;50.106;10.996;2023-07-31T09:02:05;98371.98;;;19.86;57.02
77381;BME280;66439;50.106;10.996;2023-07-31T09:04:11;98371.43;;;19.89;56.79
77381;BME280;66439;50.106;10.996;2023-07-31T09:06:18;98370.40;;;19.88;56.80
77381;BME280;66439;50.106;10.996;2023-07-31T09:08:26;98366.60;;;19.92;56.87
77381;BME280;66439;50.106;10.996;2023-07-31T09:10:34;98369.39;;;19.96;56.65
77381;BME280;66439;50.106;10.996;2023-07-31T09:12:40;98366.15;;;19.99;56.81
77381;BME280;66439;50.106;10.996;2023-07-31T09:14:45;98362.54;;;20.03;56.72
77381;BME280;66439;50.106;10.996;2023-07-31T09:16:53;98363.21;;;20.07;56.53
77381;BME280;66439;50.106;10.996;2023-07-31T09:18:56;98359.91;;;20.10;56.34
77381;BME280;66439;50.106;10.996;2023-07-31T09:21:03;98364.20;;;20.14;56.27
77381;BME280;66439;50.106;10.996;2023-07-31T09:23:11;98362.56;;;20.15;56.34
77381;BME280;66439;50.106;10.996;2023-07-31T09:25:18;98362.41;;;20.16;56.23
77381;BME280;66439;50.106;10.996;2023-07-31T09:27:22;98358.73;;;20.17;55.98
77381;BME280;66439;50.106;10.996;2023-07-31T09:29:28;98359.07;;;20.18;55.55
77381;BME280;66439;50.106;10.996;2023-07-31T09:31:38;98362.58;;;20.17;55.88
77381;BME280;66439;50.106;10.996;2023-07-31T09:33:56;98364.14;;;20.17;55.79
77381;BME280;66439;50.106;10.996;2023-07-31T09:36:04;98359.29;;;20.19;55.85
77381;BME280;66439;50.106;10.996;2023-07-31T09:38:14;98360.60;;;20.20;55.83
77381;BME280;66439;50.106;10.996;2023-07-31T09:40:34;98359.65;;;20.22;56.02
77381;BME280;66439;50.106;10.996;2023-07-31T09:42:37;98350.06;;;20.24;55.74
77381;BME280;66439;50.106;10.996;2023-07-31T09:44:41;98353.86;;;20.25;55.71
77381;BME280;66439;50.106;10.996;2023-07-31T09:46:45;98350.77;;;20.26;55.58
77381;BME280;66439;50.106;10.996;2023-07-31T09:48:50;98348.00;;;20.27;55.43
77381;BME280;66439;50.106;10.996;2023-07-31T09:50:53;98346.92;;;20.28;55.53
77381;BME280;66439;50.106;10.996;2023-07-31T09:53:03;98343.24;;;20.33;55.59
77381;BME280;66439;50.106;10.996;2023-07-31T09:55:10;98340.09;;;20.41;55.45
77381;BME280;66439;50.106;10.996;2023-07-31T09:57:16;98330.15;;;20.48;55.33
77381;BME280;66439;50.106;10.996;2023-07-31T09:59:20;98334.98;;;20.55;55.50
77381;BME280;66439;50.106;10.996;2023-07-31T10:01:26;98329.70;;;20.60;55.24
77381;BME280;66439;50.106;10.996;2023-07-31T10:03:31;98325.80;;;20.66;55.35
77381;BME280;66439;50.106;10.996;2023-07-31T10:05:40;98316.57;;;20.72;55.08
77381;BME280;66439;50.106;10.996;2023-07-31T10:08:04;98315.20;;;20.78;54.83
77381;BME280;66439;50.106;10.996;2023-07-31T10:10:11;98313.00;;;20.82;54.79
77381;BME280;66439;50.106;10.996;2023-07-31T10:12:19;98309.42;;;20.86;54.73
77381;BME280;66439;50.106;10.996;2023-07-31T10:14:29;98308.32;;;20.90;54.80
77381;BME280;66439;50.106;10.996;2023-07-31T10:16:34;98302.55;;;20.93;54.59
77381;BME280;66439;50.106;10.996;2023-07-31T10:18:38;98293.95;;;20.99;54.41
77381;BME280;66439;50.106;10.996;2023-07-31T10:20:43;98289.52;;;21.06;54.04
77381;BME280;66439;50.106;10.996;2023-07-31T10:22:47;98292.92;;;21.10;53.84
77381;BME280;66439;50.106;10.996;2023-07-31T10:24:52;98294.67;;;21.11;53.81
77381;BME280;66439;50.106;10.996;2023-07-31T10:27:01;98293.81;;;21.12;53.74
77381;BME280;66439;50.106;10.996;2023-07-31T10:29:06;98297.33;;;21.12;53.92
77381;BME280;66439;50.106;10.996;2023-07-31T10:31:09;98292.98;;;21.12;53.80
77381;BME280;66439;50.106;10.996;2023-07-31T10:33:17;98291.43;;;21.13;53.47
77381;BME280;66439;50.106;10.996;2023-07-31T10:35:23;98296.41;;;21.13;53.20
77381;BME280;66439;50.106;10.996;2023-07-31T10:37:44;98293.61;;;21.14;53.28
77381;BME280;66439;50.106;10.996;2023-07-31T10:42:19;98289.13;;;21.16;53.27
77381;BME280;66439;50.106;10.996;2023-07-31T10:44:26;98290.23;;;21.18;53.48
77381;BME280;66439;50.106;10.996;2023-07-31T10:46:32;98284.60;;;21.20;53.32
77381;BME280;66439;50.106;10.996;2023-07-31T10:48:37;98283.95;;;21.20;53.11
77381;BME280;66439;50.106;10.996;2023-07-31T10:51:00;98288.02;;;21.20;53.07
77381;BME280;66439;50.106;10.996;2023-07-31T10:53:03;98285.04;;;21.21;53.02
77381;BME280;66439;50.106;10.996;2023-07-31T10:57:35;98279.46;;;21.20;52.48
77381;BME280;66439;50.106;10.996;2023-07-31T10:59:48;98280.44;;;21.20;52.42
77381;BME280;66439;50.106;10.996;2023-07-31T11:01:55;98276.19;;;21.22;52.41
77381;BME280;66439;50.106;10.996;2023-07-31T11:04:10;98274.84;;;21.23;52.36